sensor_id;sensor_type;location;lat;lon;timestamp;pressure;altitude;pressure_sealevel;temperature;humidity
59264;BME280;45030;42.720;23.344;2024-01-16T00:01:15;93886.16;;;0.67;100.00
59264;BME280;45030;42.720;23.344;2024-01-16T00:03:42;93884.03;;;0.62;100.00
59264;BME280;45030;42.720;23.344;2024-01-16T00:06:09;93880.56;;;0.79;100.00
59264;BME280;45030;42.720;23.344;2024-01-16T00:08:35;93876.53;;;0.85;100.00
59264;BME280;45030;42.720;23.344;2024-01-16T00:11:02;93888.00;;;0.83;100.00
59264;BME280;45030;42.720;23.344;2024-01-16T00:13:28;93904.72;;;0.88;100.00
59264;BME280;45030;42.720;23.344;2024-01-16T00:15:53;93901.16;;;0.97;100.00
59264;BME280;45030;42.720;23.344;2024-01-16T00:18:18;93897.78;;;1.05;100.00
59264;BME280;45030;42.720;23.344;2024-01-16T00:20:44;93896.47;;;0.93;100.00
59264;BME280;45030;42.720;23.344;2024-01-16T00:23:09;93902.97;;;0.36;100.00
59264;BME280;45030;42.720;23.344;2024-01-16T00:25:36;93911.03;;;0.59;100.00
59264;BME280;45030;42.720;23.344;2024-01-16T00:28:02;93909.94;;;0.70;100.00
59264;BME280;45030;42.720;23.344;2024-01-16T00:30:27;93911.47;;;0.81;100.00
59264;BME280;45030;42.720;23.344;2024-01-16T00:32:53;93890.75;;;0.81;100.00
59264;BME280;45030;42.720;23.344;2024-01-16T00:35:20;93919.25;;;0.89;100.00
59264;BME280;45030;42.720;23.344;2024-01-16T00:37:45;93915.13;;;1.05;100.00
59264;BME280;45030;42.720;23.344;2024-01-16T00:40:11;93920.81;;;1.08;100.00
59264;BME280;45030;42.720;23.344;2024-01-16T00:42:36;93921.97;;;1.14;100.00
59264;BME280;45030;42.720;23.344;2024-01-16T00:45:02;93908.88;;;1.24;100.00
59264;BME280;45030;42.720;23.344;2024-01-16T00:47:27;93903.84;;;1.14;100.00
59264;BME280;45030;42.720;23.344;2024-01-16T00:49:52;93909.47;;;1.17;100.00
59264;BME280;45030;42.720;23.344;2024-01-16T00:52:18;93911.25;;;1.09;100.00
59264;BME280;45030;42.720;23.344;2024-01-16T00:54:44;93916.97;;;1.21;100.00
59264;BME280;45030;42.720;23.344;2024-01-16T00:57:10;93922.94;;;1.21;100.00
59264;BME280;45030;42.720;23.344;2024-01-16T00:59:37;93906.28;;;1.24;100.00
59264;BME280;45030;42.720;23.344;2024-01-16T01:02:05;93916.47;;;1.25;100.00
59264;BME280;45030;42.720;23.344;2024-01-16T01:04:35;93935.25;;;1.27;100.00
59264;BME280;45030;42.720;23.344;2024-01-16T01:07:00;93945.53;;;1.03;100.00
59264;BME280;45030;42.720;23.344;2024-01-16T01:09:26;93964.75;;;0.92;100.00
59264;BME280;45030;42.720;23.344;2024-01-16T01:11:51;93949.59;;;1.05;100.00
59264;BME280;45030;42.720;23.344;2024-01-16T01:14:17;93946.69;;;1.00;100.00
59264;BME280;45030;42.720;23.344;2024-01-16T01:16:44;93940.22;;;0.78;100.00
59264;BME280;45030;42.720;23.344;2024-01-16T01:19:09;93942.56;;;0.89;100.00
59264;BME280;45030;42.720;23.344;2024-01-16T01:21:35;93909.91;;;0.62;100.00
59264;BME280;45030;42.720;23.344;2024-01-16T01:24:01;93926.38;;;0.87;100.00
59264;BME280;45030;42.720;23.344;2024-01-16T01:26:26;93918.97;;;0.92;100.00
59264;BME280;45030;42.720;23.344;2024-01-16T01:28:51;93926.16;;;1.15;100.00
59264;BME280;45030;42.720;23.344;2024-01-16T01:31:17;93926.13;;;1.07;100.00
59264;BME280;45030;42.720;23.344;2024-01-16T01:33:43;93924.47;;;0.97;100.00
59264;BME280;45030;42.720;23.344;2024-01-16T01:36:08;93935.38;;;1.09;100.00
59264;BME280;45030;42.720;23.344;2024-01-16T01:38:33;93933.84;;;0.90;100.00
59264;BME280;45030;42.720;23.344;2024-01-16T01:40:59;93937.00;;;1.10;100.00
59264;BME280;45030;42.720;23.344;2024-01-16T01:43:25;93941.66;;;0.98;100.00
59264;BME280;45030;42.720;23.344;2024-01-16T01:46:29;93918.50;;;0.97;100.00
59264;BME280;45030;42.720;23.344;2024-01-16T01:48:53;93922.56;;;0.65;100.00
59264;BME280;45030;42.720;23.344;2024-01-16T01:51:19;93943.59;;;0.70;100.00
59264;BME280;45030;42.720;23.344;2024-01-16T01:53:47;93932.19;;;0.81;100.00
59264;BME280;45030;42.720;23.344;2024-01-16T01:56:17;93927.88;;;0.98;100.00
59264;BME280;45030;42.720;23.344;2024-01-16T01:58:54;93936.66;;;0.71;100.00
59264;BME280;45030;42.720;23.344;2024-01-16T02:01:22;93931.56;;;0.87;100.00
59264;BME280;45030;42.720;23.344;2024-01-16T02:03:49;93931.28;;;0.98;100.00
59264;BME280;45030;42.720;23.344;2024-01-16T02:06:16;93936.25;;;0.92;100.00
59264;BME280;45030;42.720;23.344;2024-01-16T02:08:44;93936.66;;;1.05;100.00
59264;BME280;45030;42.720;23.344;2024-01-16T02:11:10;93935.75;;;1.23;100.00
59264;BME280;45030;42.720;23.344;2024-01-16T02:13:36;93946.59;;;1.18;100.00
59264;BME280;45030;42.720;23.344;2024-01-16T02:16:01;93948.91;;;1.37;100.00
59264;BME280;45030;42.720;23.344;2024-01-16T02:18:28;93941.16;;;1.37;100.00
59264;BME280;45030;42.720;23.344;2024-01-16T02:20:58;93940.66;;;1.42;100.00
59264;BME280;45030;42.720;23.344;2024-01-16T02:23:29;93954.09;;;1.37;100.00
59264;BME280;45030;42.720;23.344;2024-01-16T02:25:56;93952.66;;;1.43;100.00
59264;BME280;45030;42.720;23.344;2024-01-16T02:28:22;93938.88;;;1.51;100.00
59264;BME280;45030;42.720;23.344;2024-01-16T02:30:49;93974.44;;;1.67;100.00
59264;BME280;45030;42.720;23.344;2024-01-16T02:33:16;93977.28;;;1.47;100.00
59264;BME280;45030;42.720;23.344;2024-01-16T02:35:41;93970.94;;;1.42;100.00
59264;BME280;45030;42.720;23.344;2024-01-16T02:38:07;93976.78;;;1.44;100.00
59264;BME280;45030;42.720;23.344;2024-01-16T02:40:34;93989.66;;;1.27;100.00
59264;BME280;45030;42.720;23.344;2024-01-16T02:42:59;93986.66;;;1.40;100.00
59264;BME280;45030;42.720;23.344;2024-01-16T02:45:24;93986.81;;;1.47;100.00
59264;BME280;45030;42.720;23.344;2024-01-16T02:47:50;93979.69;;;1.49;100.00
59264;BME280;45030;42.720;23.344;2024-01-16T02:50:15;94017.28;;;1.53;100.00
59264;BME280;45030;42.720;23.344;2024-01-16T02:52:41;94019.88;;;1.53;100.00
59264;BME280;45030;42.720;23.344;2024-01-16T02:55:06;94026.22;;;1.50;100.00
59264;BME280;45030;42.720;23.344;2024-01-16T02:57:32;94023.59;;;1.42;100.00
59264;BME280;45030;42.720;23.344;2024-01-16T02:59:59;94044.06;;;1.53;100.00
59264;BME280;45030;42.720;23.344;2024-01-16T03:02:27;94044.38;;;1.58;100.00
59264;BME280;45030;42.720;23.344;2024-01-16T03:04:52;94059.34;;;1.73;100.00
59264;BME280;45030;42.720;23.344;2024-01-16T03:07:18;94058.91;;;1.86;100.00
59264;BME280;45030;42.720;23.344;2024-01-16T03:09:43;94064.44;;;1.99;100.00
59264;BME280;45030;42.720;23.344;2024-01-16T03:12:08;94057.47;;;2.08;100.00
59264;BME280;45030;42.720;23.344;2024-01-16T03:14:34;94085.94;;;2.34;100.00
59264;BME280;45030;42.720;23.344;2024-01-16T03:17:04;94070.72;;;2.47;100.00
59264;BME280;45030;42.720;23.344;2024-01-16T03:19:31;94095.38;;;2.68;100.00
59264;BME280;45030;42.720;23.344;2024-01-16T03:21:56;94103.50;;;2.73;100.00
59264;BME280;45030;42.720;23.344;2024-01-16T03:24:23;94092.94;;;2.66;100.00
59264;BME280;45030;42.720;23.344;2024-01-16T03:26:49;94103.66;;;2.63;100.00
59264;BME280;45030;42.720;23.344;2024-01-16T03:29:14;94101.53;;;2.58;100.00
59264;BME280;45030;42.720;23.344;2024-01-16T03:31:40;94104.59;;;2.46;100.00
59264;BME280;45030;42.720;23.344;2024-01-16T03:34:06;94119.84;;;2.49;100.00
59264;BME280;45030;42.720;23.344;2024-01-16T03:36:35;94140.75;;;2.39;100.00
59264;BME280;45030;42.720;23.344;2024-01-16T03:39:01;94093.91;;;1.90;100.00
59264;BME280;45030;42.720;23.344;2024-01-16T03:41:26;94148.00;;;2.19;100.00
59264;BME280;45030;42.720;23.344;2024-01-16T03:43:51;94133.03;;;1.96;100.00
59264;BME280;45030;42.720;23.344;2024-01-16T03:46:20;94161.94;;;2.10;100.00
59264;BME280;45030;42.720;23.344;2024-01-16T03:48:45;94166.78;;;2.05;100.00
59264;BME280;45030;42.720;23.344;2024-01-16T03:51:10;94185.72;;;2.05;100.00
59264;BME280;45030;42.720;23.344;2024-01-16T03:53:36;94187.56;;;2.21;100.00
59264;BME280;45030;42.720;23.344;2024-01-16T03:56:01;94178.50;;;2.25;100.00
59264;BME280;45030;42.720;23.344;2024-01-16T03:58:27;94188.22;;;2.23;100.00
59264;BME280;45030;42.720;23.344;2024-01-16T04:00:53;94181.28;;;2.24;100.00
59264;BME280;45030;42.720;23.344;2024-01-16T04:03:18;94195.34;;;2.13;100.00
59264;BME280;45030;42.720;23.344;2024-01-16T04:05:44;94205.97;;;2.02;100.00
59264;BME280;45030;42.720;23.344;2024-01-16T04:08:10;94212.16;;;2.01;100.00
59264;BME280;45030;42.720;23.344;2024-01-16T04:10:37;94228.28;;;1.86;100.00
59264;BME280;45030;42.720;23.344;2024-01-16T04:13:03;94236.63;;;1.72;100.00
59264;BME280;45030;42.720;23.344;2024-01-16T04:15:28;94236.94;;;1.69;100.00
59264;BME280;45030;42.720;23.344;2024-01-16T04:17:54;94242.88;;;1.61;100.00
59264;BME280;45030;42.720;23.344;2024-01-16T04:20:20;94236.22;;;1.41;100.00
59264;BME280;45030;42.720;23.344;2024-01-16T04:22:46;94260.94;;;1.53;100.00
59264;BME280;45030;42.720;23.344;2024-01-16T04:25:11;94258.66;;;1.50;100.00
59264;BME280;45030;42.720;23.344;2024-01-16T04:27:38;94254.38;;;1.41;100.00
59264;BME280;45030;42.720;23.344;2024-01-16T04:30:04;94260.91;;;1.27;100.00
59264;BME280;45030;42.720;23.344;2024-01-16T04:32:29;94255.94;;;1.15;100.00
59264;BME280;45030;42.720;23.344;2024-01-16T04:34:55;94243.31;;;1.12;100.00
59264;BME280;45030;42.720;23.344;2024-01-16T04:37:20;94243.16;;;1.14;100.00
59264;BME280;45030;42.720;23.344;2024-01-16T04:39:46;94261.44;;;1.12;100.00
59264;BME280;45030;42.720;23.344;2024-01-16T04:42:11;94261.44;;;1.12;100.00
59264;BME280;45030;42.720;23.344;2024-01-16T04:44:37;94253.88;;;1.01;100.00
59264;BME280;45030;42.720;23.344;2024-01-16T04:47:02;94267.41;;;0.95;100.00
59264;BME280;45030;42.720;23.344;2024-01-16T04:49:28;94264.16;;;0.93;100.00
59264;BME280;45030;42.720;23.344;2024-01-16T04:51:53;94288.94;;;0.95;100.00
59264;BME280;45030;42.720;23.344;2024-01-16T04:54:19;94289.00;;;0.86;100.00
59264;BME280;45030;42.720;23.344;2024-01-16T04:56:44;94317.47;;;0.86;100.00
59264;BME280;45030;42.720;23.344;2024-01-16T04:59:09;94319.59;;;0.72;100.00
59264;BME280;45030;42.720;23.344;2024-01-16T05:01:35;94310.13;;;0.63;100.00
59264;BME280;45030;42.720;23.344;2024-01-16T05:04:00;94351.50;;;0.73;100.00
59264;BME280;45030;42.720;23.344;2024-01-16T05:06:26;94333.25;;;0.65;100.00
59264;BME280;45030;42.720;23.344;2024-01-16T05:08:51;94356.72;;;0.63;100.00
59264;BME280;45030;42.720;23.344;2024-01-16T05:11:18;94357.56;;;0.54;100.00
59264;BME280;45030;42.720;23.344;2024-01-16T05:13:44;94361.22;;;0.61;100.00
59264;BME280;45030;42.720;23.344;2024-01-16T05:16:11;94365.75;;;0.49;100.00
59264;BME280;45030;42.720;23.344;2024-01-16T05:18:36;94370.41;;;0.46;100.00
59264;BME280;45030;42.720;23.344;2024-01-16T05:21:01;94373.81;;;0.36;100.00
59264;BME280;45030;42.720;23.344;2024-01-16T05:23:33;94396.41;;;0.44;100.00
59264;BME280;45030;42.720;23.344;2024-01-16T05:25:58;94412.88;;;0.43;100.00
59264;BME280;45030;42.720;23.344;2024-01-16T05:28:24;94419.44;;;0.37;100.00
59264;BME280;45030;42.720;23.344;2024-01-16T05:30:49;94423.94;;;0.35;100.00
59264;BME280;45030;42.720;23.344;2024-01-16T05:33:15;94427.75;;;0.31;100.00
59264;BME280;45030;42.720;23.344;2024-01-16T05:35:41;94407.38;;;0.09;100.00
59264;BME280;45030;42.720;23.344;2024-01-16T05:38:06;94437.84;;;0.25;100.00
59264;BME280;45030;42.720;23.344;2024-01-16T05:40:32;94450.91;;;0.23;100.00
59264;BME280;45030;42.720;23.344;2024-01-16T05:42:57;94453.50;;;0.23;100.00
59264;BME280;45030;42.720;23.344;2024-01-16T05:45:23;94462.63;;;0.17;100.00
59264;BME280;45030;42.720;23.344;2024-01-16T05:47:49;94436.63;;;-0.01;100.00
59264;BME280;45030;42.720;23.344;2024-01-16T05:50:14;94484.28;;;0.26;100.00
59264;BME280;45030;42.720;23.344;2024-01-16T05:52:44;94504.16;;;0.26;100.00
59264;BME280;45030;42.720;23.344;2024-01-16T05:55:09;94500.91;;;0.24;100.00
59264;BME280;45030;42.720;23.344;2024-01-16T05:57:36;94492.97;;;0.15;100.00
59264;BME280;45030;42.720;23.344;2024-01-16T06:00:03;94514.63;;;0.24;100.00
59264;BME280;45030;42.720;23.344;2024-01-16T06:02:29;94518.03;;;0.34;100.00
59264;BME280;45030;42.720;23.344;2024-01-16T06:04:54;94528.94;;;0.18;100.00
59264;BME280;45030;42.720;23.344;2024-01-16T06:07:20;94528.13;;;0.18;100.00
59264;BME280;45030;42.720;23.344;2024-01-16T06:09:46;94526.06;;;0.12;100.00
59264;BME280;45030;42.720;23.344;2024-01-16T06:12:11;94520.47;;;0.07;100.00
59264;BME280;45030;42.720;23.344;2024-01-16T06:14:38;94563.78;;;0.24;100.00
59264;BME280;45030;42.720;23.344;2024-01-16T06:17:05;94563.50;;;0.27;100.00
59264;BME280;45030;42.720;23.344;2024-01-16T06:19:32;94549.06;;;0.15;100.00
59264;BME280;45030;42.720;23.344;2024-01-16T06:21:58;94578.50;;;0.24;100.00
59264;BME280;45030;42.720;23.344;2024-01-16T06:24:24;94591.56;;;0.22;100.00
59264;BME280;45030;42.720;23.344;2024-01-16T06:26:50;94586.63;;;0.19;100.00
59264;BME280;45030;42.720;23.344;2024-01-16T06:29:15;94575.72;;;0.06;100.00
59264;BME280;45030;42.720;23.344;2024-01-16T06:31:41;94586.78;;;0.17;100.00
59264;BME280;45030;42.720;23.344;2024-01-16T06:34:06;94608.56;;;0.15;100.00
59264;BME280;45030;42.720;23.344;2024-01-16T06:36:32;94603.50;;;0.13;100.00
59264;BME280;45030;42.720;23.344;2024-01-16T06:38:57;94608.69;;;0.13;100.00
59264;BME280;45030;42.720;23.344;2024-01-16T06:41:23;94606.66;;;0.17;100.00
59264;BME280;45030;42.720;23.344;2024-01-16T06:43:48;94624.88;;;0.15;100.00
59264;BME280;45030;42.720;23.344;2024-01-16T06:46:14;94628.03;;;0.19;100.00
59264;BME280;45030;42.720;23.344;2024-01-16T06:48:40;94634.00;;;0.19;100.00
59264;BME280;45030;42.720;23.344;2024-01-16T06:51:06;94639.34;;;0.18;100.00
59264;BME280;45030;42.720;23.344;2024-01-16T06:53:33;94638.66;;;0.16;100.00
59264;BME280;45030;42.720;23.344;2024-01-16T06:55:58;94649.25;;;0.13;100.00
59264;BME280;45030;42.720;23.344;2024-01-16T06:58:23;94660.16;;;0.16;100.00
59264;BME280;45030;42.720;23.344;2024-01-16T07:00:49;94679.75;;;0.19;100.00
59264;BME280;45030;42.720;23.344;2024-01-16T07:03:14;94664.53;;;0.16;100.00
59264;BME280;45030;42.720;23.344;2024-01-16T07:05:40;94647.88;;;0.09;100.00
59264;BME280;45030;42.720;23.344;2024-01-16T07:08:06;94676.09;;;0.22;100.00
59264;BME280;45030;42.720;23.344;2024-01-16T07:10:32;94682.22;;;0.21;100.00
59264;BME280;45030;42.720;23.344;2024-01-16T07:12:59;94688.75;;;0.15;100.00
59264;BME280;45030;42.720;23.344;2024-01-16T07:15:25;94702.63;;;0.14;100.00
59264;BME280;45030;42.720;23.344;2024-01-16T07:17:50;94717.47;;;0.12;100.00
59264;BME280;45030;42.720;23.344;2024-01-16T07:20:15;94723.56;;;0.11;100.00
59264;BME280;45030;42.720;23.344;2024-01-16T07:22:41;94727.66;;;0.13;100.00
59264;BME280;45030;42.720;23.344;2024-01-16T07:25:07;94736.50;;;0.11;100.00
59264;BME280;45030;42.720;23.344;2024-01-16T07:27:33;94758.41;;;0.07;100.00
59264;BME280;45030;42.720;23.344;2024-01-16T07:29:58;94764.28;;;0.09;100.00
59264;BME280;45030;42.720;23.344;2024-01-16T07:32:23;94749.91;;;-0.05;100.00
59264;BME280;45030;42.720;23.344;2024-01-16T07:34:49;94760.19;;;0.06;100.00
59264;BME280;45030;42.720;23.344;2024-01-16T07:37:16;94791.47;;;0.03;100.00
59264;BME280;45030;42.720;23.344;2024-01-16T07:39:45;94779.44;;;-0.08;100.00
59264;BME280;45030;42.720;23.344;2024-01-16T07:42:11;94757.19;;;-0.20;100.00
59264;BME280;45030;42.720;23.344;2024-01-16T07:44:36;94754.59;;;-0.20;100.00
59264;BME280;45030;42.720;23.344;2024-01-16T07:47:02;94792.16;;;0.05;100.00
59264;BME280;45030;42.720;23.344;2024-01-16T07:49:27;94771.97;;;-0.01;100.00
59264;BME280;45030;42.720;23.344;2024-01-16T07:51:52;94775.66;;;-0.04;100.00
59264;BME280;45030;42.720;23.344;2024-01-16T07:54:18;94751.66;;;-0.15;100.00
59264;BME280;45030;42.720;23.344;2024-01-16T07:56:43;94812.03;;;0.05;100.00
59264;BME280;45030;42.720;23.344;2024-01-16T07:59:09;94807.50;;;-0.03;100.00
59264;BME280;45030;42.720;23.344;2024-01-16T08:01:34;94821.16;;;0.09;100.00
59264;BME280;45030;42.720;23.344;2024-01-16T08:04:00;94828.47;;;0.04;100.00
59264;BME280;45030;42.720;23.344;2024-01-16T08:06:26;94829.16;;;0.06;100.00
59264;BME280;45030;42.720;23.344;2024-01-16T08:08:51;94832.91;;;0.13;100.00
59264;BME280;45030;42.720;23.344;2024-01-16T08:11:18;94811.47;;;0.01;100.00
59264;BME280;45030;42.720;23.344;2024-01-16T08:13:44;94818.94;;;-0.06;100.00
59264;BME280;45030;42.720;23.344;2024-01-16T08:16:10;94848.28;;;0.14;100.00
59264;BME280;45030;42.720;23.344;2024-01-16T08:18:36;94837.25;;;0.12;100.00
59264;BME280;45030;42.720;23.344;2024-01-16T08:21:01;94853.44;;;0.35;100.00
59264;BME280;45030;42.720;23.344;2024-01-16T08:23:26;94864.22;;;0.41;100.00
59264;BME280;45030;42.720;23.344;2024-01-16T08:25:52;94866.69;;;0.42;100.00
59264;BME280;45030;42.720;23.344;2024-01-16T08:28:18;94860.66;;;0.32;100.00
59264;BME280;45030;42.720;23.344;2024-01-16T08:30:43;94876.47;;;0.38;100.00
59264;BME280;45030;42.720;23.344;2024-01-16T08:33:10;94891.19;;;0.38;100.00
59264;BME280;45030;42.720;23.344;2024-01-16T08:35:35;94882.97;;;0.33;100.00
59264;BME280;45030;42.720;23.344;2024-01-16T08:38:01;94879.13;;;0.27;100.00
59264;BME280;45030;42.720;23.344;2024-01-16T08:40:26;94893.75;;;0.38;100.00
59264;BME280;45030;42.720;23.344;2024-01-16T08:42:51;94900.03;;;0.35;100.00
59264;BME280;45030;42.720;23.344;2024-01-16T08:45:20;94903.78;;;0.31;100.00
59264;BME280;45030;42.720;23.344;2024-01-16T08:47:47;94899.53;;;0.21;100.00
59264;BME280;45030;42.720;23.344;2024-01-16T08:50:12;94886.84;;;-0.04;100.00
59264;BME280;45030;42.720;23.344;2024-01-16T08:52:37;94894.34;;;-0.01;100.00
59264;BME280;45030;42.720;23.344;2024-01-16T08:55:03;94922.78;;;-0.01;100.00
59264;BME280;45030;42.720;23.344;2024-01-16T08:57:29;94925.25;;;0.01;100.00
59264;BME280;45030;42.720;23.344;2024-01-16T08:59:55;94923.88;;;-0.03;100.00
59264;BME280;45030;42.720;23.344;2024-01-16T09:02:20;94937.56;;;0.09;100.00
59264;BME280;45030;42.720;23.344;2024-01-16T09:04:45;94928.84;;;0.10;100.00
59264;BME280;45030;42.720;23.344;2024-01-16T09:07:12;94919.97;;;0.03;100.00
59264;BME280;45030;42.720;23.344;2024-01-16T09:09:41;94924.94;;;0.15;100.00
59264;BME280;45030;42.720;23.344;2024-01-16T09:12:08;94926.16;;;0.32;100.00
59264;BME280;45030;42.720;23.344;2024-01-16T09:14:33;94934.09;;;0.41;100.00
59264;BME280;45030;42.720;23.344;2024-01-16T09:16:59;94893.19;;;0.13;100.00
59264;BME280;45030;42.720;23.344;2024-01-16T09:19:24;94948.47;;;0.54;100.00
59264;BME280;45030;42.720;23.344;2024-01-16T09:21:49;94937.81;;;0.48;100.00
59264;BME280;45030;42.720;23.344;2024-01-16T09:24:15;94917.34;;;0.66;100.00
59264;BME280;45030;42.720;23.344;2024-01-16T09:26:40;94932.84;;;0.87;100.00
59264;BME280;45030;42.720;23.344;2024-01-16T09:29:07;94956.44;;;0.93;100.00
59264;BME280;45030;42.720;23.344;2024-01-16T09:31:34;94953.22;;;0.80;100.00
59264;BME280;45030;42.720;23.344;2024-01-16T09:34:01;94942.75;;;0.82;100.00
59264;BME280;45030;42.720;23.344;2024-01-16T09:36:26;94947.13;;;0.81;100.00
59264;BME280;45030;42.720;23.344;2024-01-16T09:38:51;94951.91;;;0.86;100.00
59264;BME280;45030;42.720;23.344;2024-01-16T09:41:17;94915.06;;;0.82;100.00
59264;BME280;45030;42.720;23.344;2024-01-16T09:43:42;94938.94;;;1.16;100.00
59264;BME280;45030;42.720;23.344;2024-01-16T09:46:10;94959.28;;;1.31;100.00
59264;BME280;45030;42.720;23.344;2024-01-16T09:48:36;94948.72;;;1.53;100.00
59264;BME280;45030;42.720;23.344;2024-01-16T09:51:02;94956.50;;;1.63;100.00
59264;BME280;45030;42.720;23.344;2024-01-16T09:53:28;94954.28;;;1.49;100.00
59264;BME280;45030;42.720;23.344;2024-01-16T09:55:54;94955.00;;;1.70;100.00
59264;BME280;45030;42.720;23.344;2024-01-16T09:58:21;94959.84;;;2.24;100.00
59264;BME280;45030;42.720;23.344;2024-01-16T10:00:46;94948.31;;;2.55;100.00
59264;BME280;45030;42.720;23.344;2024-01-16T10:03:12;94947.28;;;3.13;99.71
59264;BME280;45030;42.720;23.344;2024-01-16T10:05:42;94946.00;;;2.43;100.00
59264;BME280;45030;42.720;23.344;2024-01-16T10:08:08;94946.63;;;3.67;93.56
59264;BME280;45030;42.720;23.344;2024-01-16T10:10:34;94946.88;;;4.71;87.43
59264;BME280;45030;42.720;23.344;2024-01-16T10:12:59;94950.47;;;3.35;89.05
59264;BME280;45030;42.720;23.344;2024-01-16T10:15:25;94943.03;;;2.18;96.47
59264;BME280;45030;42.720;23.344;2024-01-16T10:17:50;94948.91;;;2.01;98.92
59264;BME280;45030;42.720;23.344;2024-01-16T10:20:16;94950.81;;;1.98;98.80
59264;BME280;45030;42.720;23.344;2024-01-16T10:22:56;94962.41;;;1.85;100.00
59264;BME280;45030;42.720;23.344;2024-01-16T10:25:23;94965.56;;;1.98;100.00
59264;BME280;45030;42.720;23.344;2024-01-16T10:27:49;94971.25;;;1.82;100.00
59264;BME280;45030;42.720;23.344;2024-01-16T10:30:27;94973.72;;;1.84;100.00
59264;BME280;45030;42.720;23.344;2024-01-16T10:32:52;94962.13;;;1.78;100.00
59264;BME280;45030;42.720;23.344;2024-01-16T10:35:18;94973.31;;;1.69;100.00
59264;BME280;45030;42.720;23.344;2024-01-16T10:37:50;94980.13;;;1.70;100.00
59264;BME280;45030;42.720;23.344;2024-01-16T10:40:19;94971.03;;;2.05;100.00
59264;BME280;45030;42.720;23.344;2024-01-16T10:43:05;94970.75;;;1.78;100.00
59264;BME280;45030;42.720;23.344;2024-01-16T10:45:32;94974.53;;;1.65;100.00
59264;BME280;45030;42.720;23.344;2024-01-16T10:48:05;94974.00;;;1.81;100.00
59264;BME280;45030;42.720;23.344;2024-01-16T10:50:35;94973.34;;;1.78;100.00
59264;BME280;45030;42.720;23.344;2024-01-16T10:53:04;94969.59;;;1.62;100.00
59264;BME280;45030;42.720;23.344;2024-01-16T10:55:30;94973.97;;;1.51;100.00
59264;BME280;45030;42.720;23.344;2024-01-16T10:57:57;94966.59;;;1.56;100.00
59264;BME280;45030;42.720;23.344;2024-01-16T11:00:26;94959.94;;;1.83;100.00
59264;BME280;45030;42.720;23.344;2024-01-16T11:03:01;94966.09;;;2.02;100.00
59264;BME280;45030;42.720;23.344;2024-01-16T11:05:31;94964.59;;;2.38;99.32
59264;BME280;45030;42.720;23.344;2024-01-16T11:07:59;94981.28;;;2.35;99.01
59264;BME280;45030;42.720;23.344;2024-01-16T11:10:29;94979.50;;;2.36;96.97
59264;BME280;45030;42.720;23.344;2024-01-16T11:13:01;94979.63;;;2.34;96.81
59264;BME280;45030;42.720;23.344;2024-01-16T11:15:28;94978.81;;;2.34;98.42
59264;BME280;45030;42.720;23.344;2024-01-16T11:17:56;94988.38;;;2.14;99.21
59264;BME280;45030;42.720;23.344;2024-01-16T11:20:23;94971.28;;;2.02;100.00
59264;BME280;45030;42.720;23.344;2024-01-16T11:22:49;94980.31;;;2.27;99.50
59264;BME280;45030;42.720;23.344;2024-01-16T11:25:16;94967.44;;;1.96;100.00
59264;BME280;45030;42.720;23.344;2024-01-16T11:27:43;94968.81;;;2.29;99.66
59264;BME280;45030;42.720;23.344;2024-01-16T11:30:10;94984.00;;;2.24;96.36
59264;BME280;45030;42.720;23.344;2024-01-16T11:32:41;94975.25;;;1.76;97.65
59264;BME280;45030;42.720;23.344;2024-01-16T11:35:10;94997.78;;;2.05;96.97
59264;BME280;45030;42.720;23.344;2024-01-16T11:37:39;94999.44;;;1.96;97.20
59264;BME280;45030;42.720;23.344;2024-01-16T11:42:47;94992.47;;;2.07;98.77
59264;BME280;45030;42.720;23.344;2024-01-16T11:48:13;94998.44;;;1.97;93.88
59264;BME280;45030;42.720;23.344;2024-01-16T11:50:39;95001.06;;;2.17;96.38
59264;BME280;45030;42.720;23.344;2024-01-16T11:53:05;95004.19;;;1.91;96.43
59264;BME280;45030;42.720;23.344;2024-01-16T11:55:35;95012.75;;;1.82;98.42
59264;BME280;45030;42.720;23.344;2024-01-16T11:58:44;95010.34;;;2.00;97.37
59264;BME280;45030;42.720;23.344;2024-01-16T12:01:10;95000.25;;;2.26;94.29
59264;BME280;45030;42.720;23.344;2024-01-16T12:03:37;95005.69;;;2.13;94.35
59264;BME280;45030;42.720;23.344;2024-01-16T12:06:03;95015.28;;;2.32;95.27
59264;BME280;45030;42.720;23.344;2024-01-16T12:08:31;95020.19;;;2.16;96.18
59264;BME280;45030;42.720;23.344;2024-01-16T12:10:57;95027.13;;;1.96;94.25
59264;BME280;45030;42.720;23.344;2024-01-16T12:13:24;95036.03;;;2.13;94.48
59264;BME280;45030;42.720;23.344;2024-01-16T12:16:04;95036.28;;;1.90;94.90
59264;BME280;45030;42.720;23.344;2024-01-16T12:18:30;95015.16;;;1.54;95.78
59264;BME280;45030;42.720;23.344;2024-01-16T12:20:55;95020.25;;;1.66;95.33
59264;BME280;45030;42.720;23.344;2024-01-16T12:23:21;95018.94;;;1.91;94.24
59264;BME280;45030;42.720;23.344;2024-01-16T12:25:52;95010.63;;;2.26;91.25
59264;BME280;45030;42.720;23.344;2024-01-16T12:28:20;95016.78;;;2.25;91.23
59264;BME280;45030;42.720;23.344;2024-01-16T12:30:50;95030.03;;;2.51;92.34
59264;BME280;45030;42.720;23.344;2024-01-16T12:33:21;95030.84;;;2.42;90.33
59264;BME280;45030;42.720;23.344;2024-01-16T12:35:47;95027.44;;;2.42;85.97
59264;BME280;45030;42.720;23.344;2024-01-16T12:38:13;95027.31;;;2.43;86.89
59264;BME280;45030;42.720;23.344;2024-01-16T12:40:48;95028.81;;;2.26;86.57
59264;BME280;45030;42.720;23.344;2024-01-16T12:43:17;95027.13;;;2.06;87.82
59264;BME280;45030;42.720;23.344;2024-01-16T12:45:44;95046.16;;;2.16;88.79
59264;BME280;45030;42.720;23.344;2024-01-16T12:48:10;95046.81;;;1.98;91.02
59264;BME280;45030;42.720;23.344;2024-01-16T12:50:36;95050.25;;;2.18;90.69
59264;BME280;45030;42.720;23.344;2024-01-16T12:53:02;95041.91;;;2.25;90.18